Time;durP1;ratioP1;P1;durP2;ratioP2;P2;SDS_P1;SDS_P2;PMS_P1;PMS_P2;Temp;Humidity;BMP_temperature;BMP_pressure;BME280_temperature;BME280_humidity;BME280_pressure;Samples;Min_cycle;Max_cycle;Signal;HPM_P1;HPM_P2
2021/06/12 00:01:18;;;;;;;3.80;1.93;;;18.00;99.90;;;;;;5084166;28;20341;-79
2021/06/12 00:03:44;;;;;;;3.40;1.93;;;18.00;99.90;;;;;;5092802;28;20205;-80
2021/06/12 00:06:11;;;;;;;4.43;2.50;;;18.00;99.90;;;;;;5084625;28;20246;-79
2021/06/12 00:08:37;;;;;;;3.10;2.30;;;17.90;99.90;;;;;;5091448;28;20229;-79
2021/06/12 00:11:05;;;;;;;3.97;2.57;;;18.00;99.90;;;;;;5075240;28;20211;-79
2021/06/12 00:13:31;;;;;;;4.23;2.20;;;17.90;99.90;;;;;;5090681;28;20274;-79
2021/06/12 00:15:58;;;;;;;3.73;2.13;;;17.80;99.90;;;;;;5092400;28;20205;-78
2021/06/12 00:18:25;;;;;;;5.43;2.50;;;17.80;99.90;;;;;;5083880;28;20203;-78
2021/06/12 00:20:54;;;;;;;4.23;2.03;;;17.80;99.90;;;;;;5090950;28;20199;-78
2021/06/12 00:23:20;;;;;;;4.30;2.47;;;17.80;99.90;;;;;;5093177;28;20285;-79
2021/06/12 00:25:46;;;;;;;5.33;2.60;;;17.80;99.90;;;;;;5091919;28;20676;-78
2021/06/12 00:28:14;;;;;;;3.63;2.70;;;17.70;99.90;;;;;;5095901;28;20232;-78
2021/06/12 00:30:41;;;;;;;4.23;2.60;;;17.70;99.90;;;;;;5096462;28;20316;-78
2021/06/12 00:33:07;;;;;;;3.00;2.37;;;17.60;99.90;;;;;;5090384;28;20233;-78
2021/06/12 00:35:33;;;;;;;4.90;2.90;;;17.60;99.90;;;;;;5093433;28;20214;-78
2021/06/12 00:38:00;;;;;;;4.33;2.50;;;17.50;99.90;;;;;;5094613;28;20199;-79
2021/06/12 00:40:26;;;;;;;5.13;3.00;;;17.50;99.90;;;;;;5096385;28;20222;-78
2021/06/12 00:42:53;;;;;;;4.10;2.57;;;17.50;99.90;;;;;;5095873;28;20660;-78
2021/06/12 00:45:24;;;;;;;3.60;2.77;;;17.50;99.90;;;;;;5094385;28;20211;-78
2021/06/12 00:47:52;;;;;;;4.33;2.57;;;17.50;99.90;;;;;;5096421;28;20237;-81
2021/06/12 00:50:21;;;;;;;4.77;3.13;;;17.40;99.90;;;;;;5095802;28;20218;-78
2021/06/12 00:52:47;;;;;;;5.80;3.07;;;17.40;99.90;;;;;;5093222;28;20195;-79
2021/06/12 00:55:15;;;;;;;3.50;2.70;;;17.50;99.90;;;;;;5095637;28;20715;-79
2021/06/12 00:57:44;;;;;;;4.67;2.83;;;17.40;99.90;;;;;;5093557;28;20673;-79
2021/06/12 01:00:14;;;;;;;5.30;3.17;;;17.30;99.90;;;;;;5095203;28;20210;-80
2021/06/12 01:02:42;;;;;;;4.17;2.90;;;17.30;99.90;;;;;;5085735;28;20194;-79
2021/06/12 01:05:11;;;;;;;3.90;2.80;;;17.20;99.90;;;;;;5095364;28;20246;-78
2021/06/12 01:07:37;;;;;;;4.23;2.90;;;17.20;99.90;;;;;;5086270;28;20202;-78
2021/06/12 01:10:06;;;;;;;6.83;3.00;;;17.20;99.90;;;;;;5090516;28;20194;-78
2021/06/12 01:12:41;;;;;;;5.60;3.37;;;17.10;99.90;;;;;;5088539;28;20278;-79
2021/06/12 01:15:10;;;;;;;5.53;3.17;;;17.10;99.90;;;;;;5092238;28;20229;-79
2021/06/12 01:17:42;;;;;;;3.97;2.43;;;17.20;99.90;;;;;;5085189;28;20195;-78
2021/06/12 01:20:42;;;;;;;4.67;2.90;;;17.10;99.90;;;;;;5091088;28;20700;-78
2021/06/12 01:23:38;;;;;;;3.10;2.80;;;17.00;99.90;;;;;;5094702;28;20290;-78
2021/06/12 01:26:11;;;;;;;4.40;3.40;;;17.00;99.90;;;;;;5095152;28;20309;-79
2021/06/12 01:28:53;;;;;;;4.93;3.20;;;17.00;99.90;;;;;;5088990;28;20283;-78
2021/06/12 01:31:23;;;;;;;3.67;2.80;;;17.00;99.90;;;;;;5091490;28;20654;-79
2021/06/12 01:33:52;;;;;;;3.73;2.80;;;17.00;99.90;;;;;;5093659;28;20278;-80
2021/06/12 01:36:18;;;;;;;5.93;3.40;;;17.00;99.90;;;;;;5086562;28;20297;-79
2021/06/12 01:38:49;;;;;;;4.80;3.07;;;16.90;99.90;;;;;;5083861;28;20195;-78
2021/06/12 01:41:20;;;;;;;7.03;3.03;;;16.90;99.90;;;;;;5091325;28;20191;-80
2021/06/12 01:43:48;;;;;;;5.13;3.10;;;16.90;99.90;;;;;;5094544;28;20292;-78
2021/06/12 01:46:15;;;;;;;5.03;3.40;;;16.90;99.90;;;;;;5094948;28;20286;-78
2021/06/12 01:48:45;;;;;;;6.20;3.17;;;16.90;99.90;;;;;;5091248;28;20195;-78
2021/06/12 01:51:12;;;;;;;4.23;3.03;;;16.90;99.90;;;;;;5074660;28;20291;-78
2021/06/12 01:53:41;;;;;;;6.03;3.80;;;16.90;99.90;;;;;;5091853;28;20207;-78
2021/06/12 01:56:11;;;;;;;7.83;3.90;;;16.80;99.90;;;;;;5082990;28;20230;-79
2021/06/12 01:58:40;;;;;;;6.40;3.93;;;16.80;99.90;;;;;;5094025;28;20359;-78
2021/06/12 02:01:08;;;;;;;5.17;3.83;;;16.70;99.90;;;;;;5081436;28;20746;-78
2021/06/12 02:03:35;;;;;;;5.63;3.93;;;16.60;99.90;;;;;;5093542;28;20217;-78
2021/06/12 02:06:04;;;;;;;7.10;3.70;;;16.60;99.90;;;;;;5089965;28;20306;-78
2021/06/12 02:08:33;;;;;;;6.23;4.00;;;16.50;99.90;;;;;;5081467;28;20204;-78
2021/06/12 02:11:00;;;;;;;6.63;4.20;;;16.50;99.90;;;;;;5079086;28;20297;-78
2021/06/12 02:13:26;;;;;;;6.57;4.00;;;16.50;99.90;;;;;;5087611;28;20199;-78
2021/06/12 02:15:56;;;;;;;6.50;4.17;;;16.40;99.90;;;;;;5092766;28;20558;-78
2021/06/12 02:18:25;;;;;;;6.20;4.43;;;16.30;99.90;;;;;;5085090;28;20595;-79
2021/06/12 02:20:52;;;;;;;7.37;4.60;;;16.30;99.90;;;;;;5094191;28;20200;-78
2021/06/12 02:23:22;;;;;;;6.10;4.30;;;16.30;99.90;;;;;;5084246;28;20285;-78
2021/06/12 02:25:51;;;;;;;7.40;4.60;;;16.30;99.90;;;;;;5093699;28;20225;-78
2021/06/12 02:28:18;;;;;;;11.50;5.40;;;16.30;99.90;;;;;;5079660;28;20199;-77
2021/06/12 02:30:49;;;;;;;7.70;5.57;;;16.20;99.90;;;;;;5090565;28;20281;-79
2021/06/12 02:33:18;;;;;;;7.37;5.67;;;16.10;99.90;;;;;;5093865;28;20278;-78
2021/06/12 02:35:46;;;;;;;9.60;6.00;;;16.00;99.90;;;;;;5089364;28;20600;-79
2021/06/12 02:38:12;;;;;;;8.47;5.57;;;16.10;99.90;;;;;;5094233;28;20588;-78
2021/06/12 02:40:40;;;;;;;9.30;5.93;;;16.10;99.90;;;;;;5090520;28;20624;-79
2021/06/12 02:43:06;;;;;;;10.73;6.17;;;16.10;99.90;;;;;;5088554;28;20544;-79
2021/06/12 02:45:33;;;;;;;9.57;6.47;;;16.10;99.90;;;;;;5084741;28;20258;-78
2021/06/12 02:48:02;;;;;;;11.30;7.27;;;16.00;99.90;;;;;;5088468;28;20616;-78
2021/06/12 02:50:33;;;;;;;11.70;6.53;;;15.90;99.90;;;;;;5103229;28;20195;-79
2021/06/12 02:53:03;;;;;;;14.03;7.20;;;16.00;99.90;;;;;;5093490;28;20536;-79
2021/06/12 02:55:31;;;;;;;13.20;7.33;;;16.00;99.90;;;;;;5106441;28;20186;-77
2021/06/12 02:57:59;;;;;;;9.57;6.13;;;16.00;99.90;;;;;;5103145;28;20637;-78
2021/06/12 03:00:27;;;;;;;12.67;7.40;;;16.00;99.90;;;;;;5099954;28;20290;-78
2021/06/12 03:02:54;;;;;;;11.93;8.03;;;15.90;99.90;;;;;;5093290;28;20195;-77
2021/06/12 03:05:23;;;;;;;9.83;7.33;;;16.10;99.90;;;;;;5086061;28;20306;-80
2021/06/12 03:07:53;;;;;;;8.60;6.67;;;16.10;99.90;;;;;;5085466;28;20239;-78
2021/06/12 03:10:22;;;;;;;8.77;5.80;;;16.20;99.90;;;;;;5072402;28;20472;-79
2021/06/12 03:12:49;;;;;;;10.90;6.37;;;16.30;99.90;;;;;;5078729;28;20191;-78
2021/06/12 03:15:17;;;;;;;10.47;6.37;;;16.40;99.90;;;;;;5107533;28;20642;-78
2021/06/12 03:17:45;;;;;;;9.53;6.53;;;16.40;99.90;;;;;;5086899;28;20283;-78
2021/06/12 03:20:14;;;;;;;8.10;6.17;;;16.50;99.90;;;;;;5088321;28;20194;-78
2021/06/12 03:22:45;;;;;;;15.57;7.50;;;16.50;99.90;;;;;;5088581;28;20561;-79
2021/06/12 03:25:13;;;;;;;9.60;7.43;;;16.50;99.90;;;;;;5092938;28;20222;-77
2021/06/12 03:27:41;;;;;;;11.27;7.93;;;16.50;99.90;;;;;;5079377;28;20239;-79
2021/06/12 03:30:08;;;;;;;15.97;10.40;;;16.50;99.90;;;;;;5103617;28;20209;-79
2021/06/12 03:32:37;;;;;;;15.07;9.70;;;16.50;99.90;;;;;;5091008;28;20282;-78
2021/06/12 03:35:04;;;;;;;13.50;9.23;;;16.50;99.90;;;;;;5092168;28;20282;-79
2021/06/12 03:37:32;;;;;;;14.63;9.93;;;16.50;99.90;;;;;;5089166;28;20205;-78
2021/06/12 03:39:59;;;;;;;16.77;10.40;;;16.40;99.90;;;;;;5101279;28;20202;-79
2021/06/12 03:42:26;;;;;;;15.37;10.07;;;16.50;99.90;;;;;;5079368;28;21544;-78
2021/06/12 03:44:54;;;;;;;16.13;10.27;;;16.60;99.90;;;;;;5098545;28;20236;-78
2021/06/12 03:47:23;;;;;;;17.07;10.47;;;16.60;99.90;;;;;;5084991;28;20275;-78
2021/06/12 03:49:51;;;;;;;19.07;10.67;;;16.60;99.90;;;;;;5087935;28;20284;-79
2021/06/12 03:52:19;;;;;;;23.40;13.53;;;16.70;99.90;;;;;;5086667;28;20203;-79
2021/06/12 03:54:46;;;;;;;22.37;12.43;;;16.60;99.90;;;;;;5085529;28;20203;-78
2021/06/12 03:57:13;;;;;;;22.70;13.03;;;16.60;99.90;;;;;;5093882;28;20228;-78
2021/06/12 03:59:40;;;;;;;22.10;12.73;;;16.70;99.90;;;;;;5101253;28;20213;-78
2021/06/12 04:02:07;;;;;;;20.50;12.47;;;16.70;99.90;;;;;;5097687;28;20270;-78
2021/06/12 04:04:34;;;;;;;22.60;13.23;;;16.70;99.90;;;;;;5098315;28;20198;-78
2021/06/12 04:07:02;;;;;;;25.33;14.63;;;16.70;99.90;;;;;;5111411;28;20214;-78
2021/06/12 04:09:28;;;;;;;25.07;14.07;;;16.80;99.90;;;;;;5081737;28;20286;-78
2021/06/12 04:11:55;;;;;;;23.27;14.37;;;16.90;99.90;;;;;;5103126;28;20652;-78
2021/06/12 04:14:21;;;;;;;25.17;14.50;;;16.90;99.90;;;;;;5108854;28;20194;-77
2021/06/12 04:16:47;;;;;;;36.60;16.27;;;17.00;99.90;;;;;;5109258;28;20284;-78
2021/06/12 04:19:14;;;;;;;31.33;16.13;;;17.00;99.90;;;;;;5089449;28;20222;-78
2021/06/12 04:21:40;;;;;;;29.13;16.73;;;16.90;99.90;;;;;;5089988;28;20206;-78
2021/06/12 04:24:08;;;;;;;27.53;16.63;;;17.00;99.90;;;;;;5087487;28;20336;-78
2021/06/12 04:26:35;;;;;;;32.57;17.60;;;16.90;99.90;;;;;;5098107;28;20309;-78
2021/06/12 04:29:01;;;;;;;29.57;17.37;;;17.00;99.90;;;;;;5101927;28;20277;-77
2021/06/12 04:31:28;;;;;;;26.57;16.17;;;17.20;99.90;;;;;;5109067;28;20197;-78
2021/06/12 04:33:54;;;;;;;36.67;16.87;;;17.20;99.90;;;;;;5097791;28;20259;-78
2021/06/12 04:36:20;;;;;;;27.40;16.50;;;17.30;99.90;;;;;;5119414;28;20233;-77
2021/06/12 04:38:47;;;;;;;31.10;17.63;;;17.40;99.90;;;;;;5100770;28;20610;-77
2021/06/12 04:41:15;;;;;;;33.87;18.33;;;17.40;99.90;;;;;;5106855;28;20196;-78
2021/06/12 04:43:41;;;;;;;31.37;17.60;;;17.40;99.90;;;;;;5100930;28;20629;-79
2021/06/12 04:46:08;;;;;;;30.80;17.47;;;17.50;99.90;;;;;;5093827;28;20360;-78
2021/06/12 04:48:34;;;;;;;31.07;16.80;;;17.40;99.90;;;;;;5094291;28;20201;-78
2021/06/12 04:51:01;;;;;;;28.80;16.87;;;17.50;99.90;;;;;;5098130;28;20343;-78
2021/06/12 04:53:30;;;;;;;27.83;16.63;;;17.50;99.90;;;;;;5092621;28;20279;-78
2021/06/12 04:55:56;;;;;;;28.40;17.23;;;17.50;99.90;;;;;;5101074;28;20248;-78
2021/06/12 04:58:24;;;;;;;28.80;15.97;;;17.60;99.90;;;;;;5097917;28;20278;-79
2021/06/12 05:00:52;;;;;;;29.13;17.03;;;17.70;99.90;;;;;;5102688;28;20644;-79
2021/06/12 05:03:19;;;;;;;27.70;17.17;;;17.60;99.90;;;;;;5098674;28;20573;-78
2021/06/12 05:05:47;;;;;;;30.73;17.43;;;17.60;99.90;;;;;;5096985;28;20215;-78
2021/06/12 05:08:14;;;;;;;27.80;17.17;;;17.60;99.90;;;;;;5095572;28;20218;-79
2021/06/12 05:10:41;;;;;;;32.73;16.80;;;17.70;99.90;;;;;;5087608;28;20210;-79
2021/06/12 05:13:07;;;;;;;27.97;16.83;;;17.60;99.90;;;;;;5095317;28;20285;-79
2021/06/12 05:15:36;;;;;;;34.80;18.17;;;17.50;99.90;;;;;;5095573;28;20699;-78
2021/06/12 05:18:05;;;;;;;28.80;18.10;;;17.50;99.90;;;;;;5096063;28;20209;-78
2021/06/12 05:20:31;;;;;;;29.87;17.70;;;17.60;99.90;;;;;;5094425;28;20214;-78
2021/06/12 05:22:58;;;;;;;29.90;17.30;;;17.60;99.90;;;;;;5095583;28;20222;-78
2021/06/12 05:25:24;;;;;;;25.97;16.97;;;17.70;99.90;;;;;;5095411;28;20194;-78
2021/06/12 05:27:51;;;;;;;32.17;18.00;;;17.70;99.90;;;;;;5095089;28;20221;-78
2021/06/12 05:30:18;;;;;;;28.70;17.50;;;17.70;99.90;;;;;;5091743;28;20199;-78
2021/06/12 05:32:46;;;;;;;31.80;17.70;;;17.70;99.90;;;;;;5095075;28;20190;-78
2021/06/12 05:35:13;;;;;;;31.27;17.17;;;17.70;99.90;;;;;;5090771;28;20223;-78
2021/06/12 05:37:40;;;;;;;29.77;17.37;;;17.70;99.90;;;;;;5084075;28;20272;-78
2021/06/12 05:40:09;;;;;;;27.77;18.07;;;17.50;99.90;;;;;;5091864;28;20240;-78
2021/06/12 05:42:36;;;;;;;29.97;17.83;;;17.60;99.90;;;;;;5094220;28;20337;-78
2021/06/12 05:45:04;;;;;;;30.90;18.37;;;17.60;99.90;;;;;;5080405;28;20295;-79
2021/06/12 05:47:31;;;;;;;28.33;17.47;;;17.60;99.90;;;;;;5085731;28;20272;-77
2021/06/12 05:49:58;;;;;;;31.13;18.03;;;17.70;99.90;;;;;;5075741;28;20279;-78
2021/06/12 05:52:25;;;;;;;28.47;17.77;;;17.70;99.90;;;;;;5091610;28;20214;-77
2021/06/12 05:54:51;;;;;;;32.20;18.10;;;17.80;99.90;;;;;;5080311;28;20294;-78
2021/06/12 05:57:18;;;;;;;30.87;18.57;;;17.90;99.90;;;;;;5094835;28;20653;-79
2021/06/12 05:59:44;;;;;;;29.60;18.50;;;17.90;99.90;;;;;;5087023;28;20294;-78
2021/06/12 06:02:11;;;;;;;27.83;18.00;;;17.80;99.90;;;;;;5089783;28;20191;-77
2021/06/12 06:04:37;;;;;;;28.90;17.60;;;17.90;99.90;;;;;;5078987;28;20278;-78
2021/06/12 06:07:05;;;;;;;29.10;17.47;;;18.00;99.90;;;;;;5073149;28;20211;-81
2021/06/12 06:09:31;;;;;;;28.73;17.47;;;18.00;99.90;;;;;;5075207;28;20188;-78
2021/06/12 06:11:58;;;;;;;27.60;17.40;;;18.10;99.90;;;;;;5079910;28;20195;-79
2021/06/12 06:14:24;;;;;;;26.83;17.60;;;18.10;99.90;;;;;;5082494;28;20286;-79
2021/06/12 06:16:51;;;;;;;30.50;18.67;;;18.10;99.90;;;;;;5077691;28;20225;-77
2021/06/12 06:19:17;;;;;;;29.73;19.33;;;18.10;99.90;;;;;;5087055;28;20275;-79
2021/06/12 06:21:43;;;;;;;29.53;18.90;;;18.20;99.90;;;;;;5084386;28;20369;-78
2021/06/12 06:24:11;;;;;;;28.57;18.77;;;18.30;99.90;;;;;;5080156;28;20234;-78
2021/06/12 06:26:38;;;;;;;28.27;18.50;;;18.40;99.90;;;;;;5082976;28;20239;-78
2021/06/12 06:29:04;;;;;;;25.00;17.47;;;18.40;99.90;;;;;;5082296;28;20237;-78
2021/06/12 06:31:31;;;;;;;29.13;18.53;;;18.40;99.90;;;;;;5088142;28;20217;-78
2021/06/12 06:33:57;;;;;;;28.93;19.00;;;18.40;99.90;;;;;;5075636;28;20187;-79
2021/06/12 06:36:23;;;;;;;32.53;19.47;;;18.60;99.90;;;;;;5092062;28;20208;-80
2021/06/12 06:38:50;;;;;;;27.97;19.37;;;18.50;99.90;;;;;;5088924;28;20184;-78
2021/06/12 06:41:18;;;;;;;30.87;19.43;;;18.40;99.90;;;;;;5080531;28;20234;-77
2021/06/12 06:43:44;;;;;;;31.67;20.23;;;18.50;99.90;;;;;;5092002;28;20663;-78
2021/06/12 06:46:10;;;;;;;32.40;19.47;;;18.60;99.90;;;;;;5077772;28;20211;-78
2021/06/12 06:48:37;;;;;;;29.67;20.03;;;18.60;99.90;;;;;;5077354;28;20219;-78
2021/06/12 06:51:04;;;;;;;31.10;21.00;;;18.60;99.90;;;;;;5063924;28;20229;-78
2021/06/12 06:53:33;;;;;;;33.80;20.07;;;18.60;99.90;;;;;;5083035;28;20693;-78
2021/06/12 06:56:00;;;;;;;28.60;20.93;;;18.60;99.90;;;;;;5088956;28;20202;-78
2021/06/12 06:58:28;;;;;;;32.07;20.37;;;18.60;99.90;;;;;;5078493;28;20227;-78
2021/06/12 07:00:54;;;;;;;32.70;20.87;;;18.70;99.90;;;;;;5070948;28;20619;-78
2021/06/12 07:03:21;;;;;;;32.50;21.67;;;18.60;99.90;;;;;;5074439;28;20299;-78
2021/06/12 07:05:48;;;;;;;32.43;20.37;;;18.60;99.90;;;;;;5076639;28;20310;-77
2021/06/12 07:08:14;;;;;;;30.97;20.43;;;18.40;99.90;;;;;;5083581;28;20278;-78
2021/06/12 07:10:41;;;;;;;32.03;21.30;;;18.40;99.90;;;;;;5085290;28;20205;-78
2021/06/12 07:13:07;;;;;;;36.30;22.17;;;18.30;99.90;;;;;;5092802;28;20218;-77
2021/06/12 07:15:35;;;;;;;32.57;22.77;;;18.30;99.90;;;;;;5092833;28;20284;-78
2021/06/12 07:18:01;;;;;;;35.20;22.80;;;18.10;99.90;;;;;;5089086;28;20222;-78
2021/06/12 07:20:28;;;;;;;33.67;22.47;;;18.10;99.90;;;;;;5077893;28;20192;-78
2021/06/12 07:22:55;;;;;;;34.73;23.33;;;18.10;99.90;;;;;;5093159;28;20301;-78
2021/06/12 07:25:22;;;;;;;32.67;23.03;;;18.20;99.90;;;;;;5084616;28;20221;-78
2021/06/12 07:27:48;;;;;;;32.43;22.97;;;18.20;99.90;;;;;;5092532;28;20676;-79
2021/06/12 07:30:16;;;;;;;36.50;23.83;;;18.20;99.90;;;;;;5090140;28;20278;-79
2021/06/12 07:32:44;;;;;;;38.00;23.47;;;18.30;99.90;;;;;;5092469;28;20221;-78
2021/06/12 07:35:12;;;;;;;31.87;23.70;;;18.40;99.90;;;;;;5079988;28;20617;-78
2021/06/12 07:37:39;;;;;;;35.07;24.20;;;18.50;99.90;;;;;;5078109;28;20191;-78
2021/06/12 07:40:07;;;;;;;36.20;24.53;;;18.50;99.90;;;;;;5079861;28;20282;-78
2021/06/12 07:42:33;;;;;;;32.83;24.23;;;18.40;99.90;;;;;;5069642;28;20194;-79
2021/06/12 07:45:00;;;;;;;35.23;23.80;;;18.20;99.90;;;;;;5079298;28;20267;-78
2021/06/12 07:47:26;;;;;;;29.90;22.80;;;18.30;99.90;;;;;;5083238;28;20298;-78
2021/06/12 07:49:54;;;;;;;35.03;23.33;;;18.50;99.90;;;;;;5089004;28;20243;-78
2021/06/12 07:52:21;;;;;;;30.77;22.27;;;18.60;99.90;;;;;;5089781;28;20270;-79
2021/06/12 07:54:47;;;;;;;30.17;21.87;;;18.80;99.90;;;;;;5100607;28;20282;-78
2021/06/12 07:57:13;;;;;;;27.53;20.90;;;18.90;99.90;;;;;;5071020;28;20728;-79
2021/06/12 07:59:40;;;;;;;27.60;22.27;;;18.90;99.90;;;;;;5082455;28;20202;-78
2021/06/12 08:02:07;;;;;;;28.33;21.17;;;18.90;99.90;;;;;;5087287;28;20648;-78
2021/06/12 08:04:33;;;;;;;27.73;21.80;;;18.90;99.90;;;;;;5089619;28;20203;-76
2021/06/12 08:07:01;;;;;;;30.00;21.40;;;19.00;99.90;;;;;;5090712;28;20319;-78
2021/06/12 08:09:28;;;;;;;28.47;21.73;;;19.00;99.90;;;;;;5079301;28;20189;-77
2021/06/12 08:11:55;;;;;;;29.43;22.87;;;19.10;99.90;;;;;;5077183;28;20212;-79
2021/06/12 08:14:21;;;;;;;25.23;20.87;;;19.30;99.90;;;;;;5079913;28;20271;-77
2021/06/12 08:16:47;;;;;;;29.30;22.73;;;19.50;99.90;;;;;;5088341;28;20210;-80
2021/06/12 08:19:14;;;;;;;29.90;21.43;;;19.50;99.90;;;;;;5072182;28;20211;-78
2021/06/12 08:21:40;;;;;;;28.60;22.13;;;19.70;99.90;;;;;;5074959;28;20203;-79
2021/06/12 08:24:09;;;;;;;27.40;22.13;;;20.00;99.90;;;;;;5070811;28;20530;-79
2021/06/12 08:26:35;;;;;;;27.87;21.57;;;20.00;99.90;;;;;;5088779;28;20299;-78
2021/06/12 08:29:01;;;;;;;26.60;21.50;;;20.30;99.90;;;;;;5075516;28;20187;-78
2021/06/12 08:31:28;;;;;;;30.13;21.87;;;20.70;99.90;;;;;;5075494;28;20242;-79
2021/06/12 08:33:54;;;;;;;25.37;21.00;;;21.10;99.90;;;;;;5084829;28;20451;-78
2021/06/12 08:36:21;;;;;;;30.40;21.17;;;21.30;99.90;;;;;;5080416;28;20381;-77
2021/06/12 08:38:47;;;;;;;24.03;19.50;;;21.60;99.90;;;;;;5087029;28;20242;-77
2021/06/12 08:41:16;;;;;;;22.83;19.27;;;21.90;99.90;;;;;;5078416;28;20274;-78
2021/06/12 08:43:42;;;;;;;23.98;18.88;;;22.40;99.90;;;;;;5084594;28;20190;-79
2021/06/12 08:46:11;;;;;;;23.27;18.98;;;22.90;99.90;;;;;;5087660;28;20239;-79
2021/06/12 08:48:38;;;;;;;22.05;19.60;;;23.10;99.90;;;;;;5090937;28;20223;-78
2021/06/12 08:51:05;;;;;;;20.77;18.58;;;23.00;99.90;;;;;;5085599;28;20294;-80
2021/06/12 08:53:32;;;;;;;24.52;18.75;;;23.00;99.90;;;;;;5086965;28;20661;-78
2021/06/12 08:55:59;;;;;;;23.27;19.63;;;23.00;99.90;;;;;;5081767;28;20222;-78
2021/06/12 08:58:27;;;;;;;20.83;18.65;;;22.90;99.90;;;;;;5087236;28;20215;-78
2021/06/12 09:00:53;;;;;;;21.17;18.02;;;22.90;99.90;;;;;;5083159;28;20531;-78
2021/06/12 09:03:22;;;;;;;21.42;18.45;;;22.90;99.90;;;;;;5082527;28;20191;-78
2021/06/12 09:05:52;;;;;;;21.27;17.90;;;23.00;99.90;;;;;;5083424;28;20634;-78
2021/06/12 09:08:21;;;;;;;20.20;17.55;;;23.30;99.90;;;;;;5085124;28;20278;-78
2021/06/12 09:10:54;;;;;;;19.17;17.17;;;23.40;99.90;;;;;;5081997;28;20215;-77
2021/06/12 09:13:38;;;;;;;23.30;18.15;;;23.50;99.90;;;;;;5086067;28;20197;-78
2021/06/12 09:16:07;;;;;;;20.20;18.02;;;23.40;99.90;;;;;;5077761;28;20198;-78
2021/06/12 09:18:35;;;;;;;22.55;17.52;;;23.20;99.90;;;;;;5090269;28;20286;-79
2021/06/12 09:21:02;;;;;;;20.70;16.92;;;23.20;99.90;;;;;;5090164;28;20221;-78
2021/06/12 09:23:38;;;;;;;20.45;17.63;;;23.70;99.90;;;;;;5082733;28;20211;-79
2021/06/12 09:26:06;;;;;;;18.05;16.23;;;24.00;99.90;;;;;;5080098;28;20678;-78
2021/06/12 09:28:48;;;;;;;21.80;16.80;;;24.30;99.90;;;;;;5082452;28;20197;-79
2021/06/12 09:31:23;;;;;;;19.55;17.15;;;24.40;99.90;;;;;;5079177;28;20282;-81
2021/06/12 09:33:52;;;;;;;19.23;17.23;;;24.20;99.90;;;;;;5071482;28;20637;-78
2021/06/12 09:36:19;;;;;;;21.88;17.83;;;23.90;99.90;;;;;;5082566;28;20197;-79
2021/06/12 09:38:45;;;;;;;20.48;17.23;;;23.80;99.90;;;;;;5084953;28;20663;-79
2021/06/12 09:41:22;;;;;;;22.02;17.67;;;23.50;99.90;;;;;;5082508;28;20295;-78
2021/06/12 09:43:50;;;;;;;20.08;17.05;;;23.30;99.90;;;;;;5078860;28;20231;-78
2021/06/12 09:46:35;;;;;;;21.92;18.95;;;22.90;99.90;;;;;;5082691;28;20547;-78
2021/06/12 09:49:01;;;;;;;21.25;17.85;;;22.80;99.90;;;;;;5082078;28;20211;-79
2021/06/12 09:51:28;;;;;;;21.45;18.52;;;22.90;99.90;;;;;;5089847;28;20365;-78
2021/06/12 09:53:57;;;;;;;23.38;19.58;;;22.90;99.90;;;;;;5075893;28;20199;-78
2021/06/12 09:56:25;;;;;;;20.17;18.08;;;23.00;99.90;;;;;;5084090;28;20587;-78
2021/06/12 09:58:53;;;;;;;21.90;17.83;;;23.30;99.90;;;;;;5079790;28;20191;-79
2021/06/12 10:01:23;;;;;;;19.10;16.92;;;23.30;99.90;;;;;;5092670;28;20232;-79
2021/06/12 10:04:07;;;;;;;19.63;17.27;;;24.00;99.90;;;;;;5092374;28;20198;-79
2021/06/12 10:06:33;;;;;;;18.85;16.85;;;24.70;99.90;;;;;;5080810;28;20753;-80
2021/06/12 10:09:03;;;;;;;17.63;15.82;;;26.40;99.90;;;;;;5081807;28;20283;-79
2021/06/12 10:11:31;;;;;;;17.92;16.02;;;27.20;99.90;;;;;;5088163;28;20256;-79
2021/06/12 10:14:00;;;;;;;17.73;15.07;;;27.80;99.90;;;;;;5080602;28;20215;-78
2021/06/12 10:16:27;;;;;;;20.55;14.88;;;28.40;99.90;;;;;;5088643;28;20199;-79
2021/06/12 10:18:56;;;;;;;16.02;14.38;;;28.30;99.90;;;;;;5090633;28;20226;-79
2021/06/12 10:21:23;;;;;;;17.25;15.52;;;27.70;99.90;;;;;;5090770;28;20194;-78
2021/06/12 10:23:51;;;;;;;15.90;14.25;;;27.70;99.90;;;;;;5080506;28;20283;-78
2021/06/12 10:26:21;;;;;;;15.48;13.98;;;27.60;99.90;;;;;;5085757;28;20257;-79
2021/06/12 10:28:48;;;;;;;16.48;14.30;;;27.40;99.90;;;;;;5090083;28;20212;-78
2021/06/12 10:31:19;;;;;;;16.35;14.60;;;26.90;99.90;;;;;;5091301;28;20191;-79
2021/06/12 10:33:47;;;;;;;18.05;15.40;;;26.90;99.90;;;;;;5086186;28;20641;-80
2021/06/12 10:36:15;;;;;;;17.13;15.38;;;26.20;99.90;;;;;;5079985;28;20195;-79
2021/06/12 10:38:43;;;;;;;16.48;14.82;;;26.10;99.90;;;;;;5077996;28;20362;-80
2021/06/12 10:41:18;;;;;;;17.20;15.50;;;26.30;99.90;;;;;;5076298;28;20269;-79
2021/06/12 10:43:46;;;;;;;17.92;15.63;;;26.50;99.90;;;;;;5083297;28;20194;-79
2021/06/12 10:46:16;;;;;;;18.58;16.65;;;27.20;99.90;;;;;;5084202;28;20222;-79
2021/06/12 10:48:45;;;;;;;17.33;14.80;;;27.40;99.90;;;;;;5084680;28;20198;-78
2021/06/12 10:51:13;;;;;;;14.95;13.55;;;26.90;99.90;;;;;;5079809;28;20198;-81
2021/06/12 10:53:42;;;;;;;14.73;12.95;;;26.60;99.90;;;;;;5078059;28;20201;-79
2021/06/12 10:56:10;;;;;;;14.23;12.82;;;26.30;99.90;;;;;;5073228;28;20227;-79
2021/06/12 10:58:50;;;;;;;15.23;13.73;;;26.20;99.90;;;;;;5083100;28;20695;-79
2021/06/12 11:01:26;;;;;;;14.50;12.38;;;26.80;99.90;;;;;;5078952;28;20203;-79
2021/06/12 11:04:07;;;;;;;12.80;11.18;;;27.70;99.90;;;;;;5084301;28;20241;-79
2021/06/12 11:06:40;;;;;;;12.05;10.82;;;28.70;99.90;;;;;;5079125;28;20690;-78
2021/06/12 11:09:32;;;;;;;10.45;9.45;;;28.10;99.90;;;;;;5082294;28;20263;-79
2021/06/12 11:12:01;;;;;;;12.77;10.90;;;27.40;99.90;;;;;;5078162;28;20203;-78
2021/06/12 11:14:30;;;;;;;11.20;10.20;;;28.00;99.90;;;;;;5083648;28;20203;-79
2021/06/12 11:17:17;;;;;;;10.43;9.35;;;29.40;99.90;;;;;;5086855;28;20206;-80
2021/06/12 11:19:46;;;;;;;9.73;8.30;;;31.40;99.90;;;;;;5074075;28;20520;-79
2021/06/12 11:22:30;;;;;;;11.38;8.48;;;31.90;99.90;;;;;;5089681;28;20637;-80
2021/06/12 11:24:58;;;;;;;8.65;7.88;;;32.00;99.90;;;;;;5080463;28;20358;-78
2021/06/12 11:27:27;;;;;;;7.45;6.85;;;32.70;99.90;;;;;;5090942;28;20248;-81
2021/06/12 11:30:13;;;;;;;9.20;6.70;;;32.70;99.90;;;;;;5086493;28;20279;-81
2021/06/12 11:32:42;;;;;;;6.32;5.82;;;31.40;99.90;;;;;;5086739;28;20294;-80
2021/06/12 11:35:10;;;;;;;7.57;6.97;;;30.40;99.90;;;;;;5079072;28;20292;-79
2021/06/12 11:37:37;;;;;;;7.00;6.32;;;29.50;99.90;;;;;;5074621;28;20268;-79
2021/06/12 11:40:06;;;;;;;8.15;7.35;;;30.00;99.90;;;;;;5078128;28;20218;-80
2021/06/12 11:42:43;;;;;;;8.77;7.60;;;30.00;99.90;;;;;;5081725;28;20393;-78
2021/06/12 11:45:18;;;;;;;6.55;5.97;;;29.20;99.90;;;;;;5090712;28;20277;-80
2021/06/12 11:47:46;;;;;;;8.88;7.40;;;28.50;99.90;;;;;;5088388;28;20298;-80
2021/06/12 11:50:14;;;;;;;8.13;7.43;;;27.70;99.90;;;;;;5081853;28;20216;-78
2021/06/12 11:52:41;;;;;;;15.68;9.80;;;27.10;99.90;;;;;;5078474;28;20683;-79
2021/06/12 11:55:13;;;;;;;15.63;10.70;;;25.70;99.90;;;;;;5080854;28;20245;-78
2021/06/12 11:57:41;;;;;;;11.65;8.85;;;24.50;99.90;;;;;;5082365;28;20746;-80
2021/06/12 12:00:27;;;;;;;14.88;8.85;;;24.70;99.90;;;;;;5087675;28;20207;-80
2021/06/12 12:03:04;;;;;;;10.73;7.68;;;25.00;99.90;;;;;;5083879;28;20290;-79
2021/06/12 12:05:32;;;;;;;15.68;8.38;;;26.10;99.90;;;;;;5074153;28;20195;-79
2021/06/12 12:07:59;;;;;;;10.55;7.30;;;26.70;99.90;;;;;;5075361;28;20265;-79
2021/06/12 12:10:26;;;;;;;11.57;7.82;;;27.00;99.90;;;;;;5088692;28;20201;-78
2021/06/12 12:12:53;;;;;;;9.98;7.30;;;26.10;99.90;;;;;;5084048;28;20245;-79
2021/06/12 12:15:36;;;;;;;9.30;7.05;;;26.30;99.90;;;;;;5081627;28;20199;-79
2021/06/12 12:18:05;;;;;;;10.02;6.57;;;27.50;99.90;;;;;;5084192;28;20196;-78
2021/06/12 12:20:37;;;;;;;10.32;6.38;;;28.40;99.90;;;;;;5086993;28;20249;-79
2021/06/12 12:23:17;;;;;;;8.20;6.75;;;28.90;99.90;;;;;;5080938;28;20300;-78
2021/06/12 12:25:43;;;;;;;11.98;7.40;;;29.50;99.90;;;;;;5084639;28;20308;-79
2021/06/12 12:28:12;;;;;;;9.48;6.55;;;28.80;99.90;;;;;;5093255;28;20210;-78
2021/06/12 12:30:38;;;;;;;9.40;7.20;;;28.90;99.90;;;;;;5089323;28;20223;-78
2021/06/12 12:33:11;;;;;;;8.07;6.00;;;28.80;99.90;;;;;;5084418;28;20477;-79
2021/06/12 12:35:38;;;;;;;9.38;6.25;;;28.40;99.90;;;;;;5082808;28;20231;-78
2021/06/12 12:38:12;;;;;;;10.63;6.72;;;27.40;99.90;;;;;;5089614;28;20282;-80
2021/06/12 12:40:39;;;;;;;11.98;6.78;;;27.50;99.90;;;;;;5079691;28;20607;-78